createdAt,value
2019-01-26T00:01:57.670Z,63.70
2019-01-26T00:04:27.585Z,63.30
2019-01-26T00:06:59.752Z,63.60
2019-01-26T00:09:52.400Z,64.00
2019-01-26T00:12:25.453Z,64.10
2019-01-26T00:14:58.579Z,64.30
2019-01-26T00:17:30.336Z,64.20
2019-01-26T00:20:02.099Z,64.10
2019-01-26T00:22:32.316Z,63.40
2019-01-26T00:25:04.845Z,63.00
2019-01-26T00:27:34.909Z,63.60
2019-01-26T00:30:14.348Z,63.20
2019-01-26T00:32:44.467Z,63.40
2019-01-26T00:35:15.950Z,63.20
2019-01-26T00:37:46.548Z,63.40
2019-01-26T00:40:17.180Z,63.20
2019-01-26T00:42:48.835Z,63.60
2019-01-26T00:45:21.648Z,63.00
2019-01-26T00:47:51.635Z,62.90
2019-01-26T00:50:22.086Z,63.40
2019-01-26T00:52:52.189Z,64.20
2019-01-26T00:58:02.865Z,63.80
2019-01-26T01:00:32.884Z,64.10
2019-01-26T01:03:03.228Z,64.00
2019-01-26T01:05:34.349Z,62.90
2019-01-26T01:08:04.469Z,63.00
2019-01-26T01:10:38.822Z,63.10
2019-01-26T01:13:08.803Z,63.30
2019-01-26T01:15:40.356Z,63.70
2019-01-26T01:18:10.374Z,64.00
2019-01-26T01:20:40.594Z,64.10
2019-01-26T01:23:10.920Z,64.70
2019-01-26T01:25:42.167Z,64.20
2019-01-26T01:28:12.489Z,63.60
2019-01-26T01:30:42.943Z,62.70
2019-01-26T01:33:13.224Z,63.20
2019-01-26T01:35:44.589Z,62.20
2019-01-26T01:38:14.709Z,61.60
2019-01-26T01:40:45.338Z,61.30
2019-01-26T01:43:15.354Z,62.00
2019-01-26T01:45:46.806Z,61.60
2019-01-26T01:48:17.131Z,61.40
2019-01-26T01:50:48.888Z,60.90
2019-01-26T01:53:18.892Z,61.70
2019-01-26T01:55:50.151Z,61.50
2019-01-26T01:58:20.189Z,61.50
2019-01-26T02:00:50.315Z,61.80
2019-01-26T02:06:09.163Z,62.30
2019-01-26T02:08:39.182Z,62.50
2019-01-26T02:11:09.300Z,62.70
2019-01-26T02:13:39.317Z,62.60
2019-01-26T02:16:09.641Z,62.30
2019-01-26T02:18:39.760Z,62.20
2019-01-26T02:21:09.880Z,61.60
2019-01-26T02:26:30.496Z,61.60
2019-01-26T02:29:02.050Z,61.80
2019-01-26T02:34:27.991Z,62.10
2019-01-26T02:36:58.316Z,61.30
2019-01-26T02:39:29.561Z,61.60
2019-01-26T02:41:59.606Z,61.10
2019-01-26T02:44:29.595Z,61.00
2019-01-26T02:46:59.924Z,61.50
2019-01-26T02:49:30.039Z,61.80
2019-01-26T02:54:40.108Z,62.60
2019-01-26T02:57:10.125Z,62.10
2019-01-26T02:59:40.245Z,62.20
2019-01-26T03:02:10.363Z,62.40
2019-01-26T03:05:00.964Z,62.80
2019-01-26T03:10:26.700Z,63.50
2019-01-26T03:12:56.819Z,62.80
2019-01-26T03:15:27.968Z,63.00
2019-01-26T03:17:58.185Z,63.00
2019-01-26T03:20:28.203Z,63.30
2019-01-26T03:22:58.321Z,62.50
2019-01-26T03:25:29.545Z,62.70
2019-01-26T03:27:59.688Z,62.50
2019-01-26T03:30:29.809Z,62.80
2019-01-26T03:32:59.785Z,62.60
2019-01-26T03:35:31.071Z,62.20
2019-01-26T03:38:01.086Z,62.50
2019-01-26T03:40:31.232Z,62.00
2019-01-26T03:43:02.347Z,62.20
2019-01-26T03:45:33.594Z,62.10
2019-01-26T03:48:03.920Z,62.20
2019-01-26T03:53:24.023Z,63.00
2019-01-26T03:56:06.634Z,62.60
2019-01-26T03:58:36.959Z,62.30
2019-01-26T04:01:06.980Z,62.10
2019-01-26T04:03:57.985Z,62.30
2019-01-26T04:06:29.349Z,62.60
2019-01-26T04:08:59.476Z,61.50
2019-01-26T04:11:29.472Z,62.40
2019-01-26T04:13:59.488Z,62.10
2019-01-26T04:16:30.939Z,62.30
2019-01-26T04:19:01.166Z,62.30
2019-01-26T04:21:31.381Z,62.70
2019-01-26T04:24:01.603Z,62.40
2019-01-26T04:26:32.849Z,62.50
2019-01-26T04:29:03.071Z,62.60
2019-01-26T04:31:33.098Z,62.10
2019-01-26T04:34:03.144Z,61.50
2019-01-26T04:36:55.453Z,61.90
2019-01-26T04:39:25.363Z,61.60
2019-01-26T04:41:55.489Z,61.50
2019-01-26T04:44:25.499Z,61.80
2019-01-26T04:46:55.841Z,61.50
2019-01-26T04:49:26.042Z,61.90
2019-01-26T04:51:56.390Z,61.80
2019-01-26T04:54:26.589Z,62.30
2019-01-26T04:56:58.143Z,62.10
2019-01-26T04:59:28.323Z,62.30
2019-01-26T05:01:58.703Z,62.20
2019-01-26T05:07:19.534Z,61.90
2019-01-26T05:10:01.938Z,62.10
2019-01-26T05:12:32.244Z,61.00
2019-01-26T05:15:21.512Z,60.60
2019-01-26T05:17:51.833Z,60.60
2019-01-26T05:20:23.539Z,61.20
2019-01-26T05:22:54.735Z,61.40
2019-01-26T05:25:26.084Z,61.70
2019-01-26T05:27:56.843Z,61.80
2019-01-26T05:30:27.809Z,61.90
2019-01-26T05:36:05.508Z,62.10
2019-01-26T05:38:35.797Z,61.00
2019-01-26T05:41:06.021Z,60.60
2019-01-26T05:43:36.242Z,60.70
2019-01-26T05:46:07.385Z,60.30
2019-01-26T05:48:37.616Z,60.70
2019-01-26T05:51:07.625Z,61.30
2019-01-26T05:53:37.947Z,61.70
2019-01-26T05:56:09.123Z,61.10
2019-01-26T05:58:39.420Z,61.40
2019-01-26T06:01:09.534Z,61.50
2019-01-26T06:03:39.653Z,61.40
2019-01-26T06:06:11.105Z,61.40
2019-01-26T06:08:41.224Z,61.40
2019-01-26T06:11:11.548Z,61.20
2019-01-26T06:13:41.769Z,61.00
2019-01-26T06:16:13.018Z,61.60
2019-01-26T06:18:43.471Z,61.60
2019-01-26T06:21:13.460Z,61.30
2019-01-26T06:23:43.582Z,61.20
2019-01-26T06:26:14.829Z,61.70
2019-01-26T06:28:45.384Z,61.60
2019-01-26T06:31:15.578Z,62.10
2019-01-26T06:33:45.696Z,62.40
2019-01-26T06:36:16.941Z,62.30
2019-01-26T06:38:47.265Z,62.30
2019-01-26T06:41:17.179Z,62.70
2019-01-26T06:43:47.430Z,61.30
2019-01-26T06:46:18.648Z,61.00
2019-01-26T06:48:50.145Z,60.30
2019-01-26T06:51:20.116Z,60.40
2019-01-26T06:54:11.124Z,60.60
2019-01-26T06:56:42.471Z,60.90
2019-01-26T06:59:12.591Z,60.30
2019-01-26T07:01:42.607Z,59.80
2019-01-26T07:04:14.469Z,58.60
2019-01-26T07:06:48.138Z,57.20
2019-01-26T07:09:18.496Z,55.10
2019-01-26T07:11:48.514Z,53.10
2019-01-26T07:14:18.563Z,51.20
2019-01-26T07:16:49.777Z,49.30
2019-01-26T07:19:20.000Z,46.50
2019-01-26T07:21:51.141Z,44.10
2019-01-26T07:24:21.156Z,42.10
2019-01-26T07:26:52.301Z,40.50
2019-01-26T07:29:23.750Z,38.10
2019-01-26T07:31:55.406Z,37.70
2019-01-26T07:34:26.653Z,37.60
2019-01-26T07:36:58.309Z,38.20
2019-01-26T07:39:28.405Z,39.10
2019-01-26T07:42:01.518Z,40.10
2019-01-26T07:44:32.045Z,41.30
2019-01-26T07:49:55.017Z,43.20
2019-01-26T07:52:25.238Z,44.10
2019-01-26T07:54:55.312Z,45.20
2019-01-26T07:57:25.306Z,45.40
2019-01-26T07:59:56.683Z,45.00
2019-01-26T08:02:26.535Z,45.60
2019-01-26T08:04:56.962Z,45.40
2019-01-26T08:07:27.288Z,44.60
2019-01-26T08:09:57.405Z,43.80
2019-01-26T08:12:27.445Z,44.30
2019-01-26T08:14:57.876Z,44.50
2019-01-26T08:17:27.968Z,44.70
2019-01-26T08:19:58.212Z,44.60
2019-01-26T08:22:28.210Z,44.90
2019-01-26T08:24:59.967Z,43.20
2019-01-26T08:27:30.007Z,42.30
2019-01-26T08:30:00.261Z,40.30
2019-01-26T08:32:30.357Z,39.10
2019-01-26T08:35:01.569Z,36.50
2019-01-26T08:37:31.632Z,34.30
2019-01-26T08:40:03.369Z,32.70
2019-01-26T08:42:34.079Z,31.60
2019-01-26T08:45:08.396Z,29.50
2019-01-26T08:47:38.925Z,29.20
2019-01-26T08:50:14.584Z,28.30
2019-01-26T08:52:45.105Z,27.80
2019-01-26T08:55:18.265Z,26.80
2019-01-26T08:57:48.438Z,26.20
2019-01-26T09:00:24.518Z,25.90
2019-01-26T09:02:56.536Z,25.70
2019-01-26T09:05:45.805Z,26.20
2019-01-26T09:08:16.438Z,26.70
2019-01-26T09:10:47.030Z,27.00
2019-01-26T09:13:17.597Z,27.30
2019-01-26T09:15:49.237Z,27.90
2019-01-26T09:18:19.573Z,28.10
2019-01-26T09:20:50.039Z,29.60
2019-01-26T09:23:20.374Z,31.00
2019-01-26T09:25:50.840Z,32.50
2019-01-26T09:28:20.702Z,35.10
2019-01-26T09:30:50.595Z,37.00
2019-01-26T09:33:20.370Z,38.80
2019-01-26T09:35:51.357Z,40.40
2019-01-26T09:38:21.352Z,41.40
2019-01-26T09:40:52.493Z,43.20
2019-01-26T09:43:22.615Z,44.70
2019-01-26T09:45:54.372Z,46.20
2019-01-26T09:48:24.493Z,46.60
2019-01-26T09:50:54.703Z,47.40
2019-01-26T09:53:24.453Z,48.50
2019-01-26T09:55:54.371Z,49.30
2019-01-26T09:58:24.354Z,49.60
2019-01-26T10:00:54.939Z,49.90
2019-01-26T10:03:24.824Z,49.20
2019-01-26T10:05:56.657Z,48.90
2019-01-26T10:08:27.835Z,48.60
2019-01-26T10:10:58.024Z,48.80
2019-01-26T10:13:28.040Z,48.30
2019-01-26T10:15:59.387Z,47.50
2019-01-26T10:18:29.816Z,47.80
2019-01-26T10:20:59.889Z,48.30
2019-01-26T10:23:29.848Z,47.70
2019-01-26T10:26:00.274Z,47.30
2019-01-26T10:28:30.074Z,47.80
2019-01-26T10:31:00.307Z,47.90
2019-01-26T10:33:30.340Z,48.00
2019-01-26T10:36:02.084Z,48.20
2019-01-26T10:38:33.621Z,47.90
2019-01-26T10:41:05.395Z,48.40
2019-01-26T10:43:39.555Z,48.50
2019-01-26T10:46:10.957Z,48.40
2019-01-26T10:48:41.805Z,48.60
2019-01-26T10:51:13.554Z,48.80
2019-01-26T10:53:43.875Z,48.60
2019-01-26T10:56:14.200Z,48.30
2019-01-26T10:58:44.318Z,48.00
2019-01-26T11:01:14.745Z,48.10
2019-01-26T11:03:44.866Z,48.00
2019-01-26T11:06:15.396Z,47.30
2019-01-26T11:08:45.514Z,47.20
2019-01-26T11:11:16.862Z,47.00
2019-01-26T11:13:46.984Z,47.10
2019-01-26T11:16:17.305Z,47.40
2019-01-26T11:18:48.859Z,46.20
2019-01-26T11:21:19.419Z,45.50
2019-01-26T11:23:51.940Z,46.40
2019-01-26T11:26:22.657Z,46.20
2019-01-26T11:28:52.510Z,47.60
2019-01-26T11:31:23.974Z,47.50
2019-01-26T11:33:54.898Z,47.10
2019-01-26T11:36:25.634Z,47.50
2019-01-26T11:38:55.693Z,47.70
2019-01-26T11:41:25.976Z,48.70
2019-01-26T11:43:56.094Z,48.80
2019-01-26T11:46:40.438Z,48.50
2019-01-26T11:49:15.311Z,48.60
2019-01-26T11:51:52.522Z,48.80
2019-01-26T11:54:22.334Z,46.70
2019-01-26T11:56:52.806Z,46.10
2019-01-26T11:59:22.823Z,46.60
2019-01-26T12:01:59.092Z,46.80
2019-01-26T12:04:34.736Z,46.30
2019-01-26T12:07:06.337Z,46.70
2019-01-26T12:09:36.303Z,47.40
2019-01-26T12:15:37.581Z,48.10
2019-01-26T12:18:07.558Z,46.70
2019-01-26T12:20:37.885Z,46.70
2019-01-26T12:24:22.641Z,45.70
2019-01-26T12:41:42.325Z,44.20
2019-01-26T12:44:12.544Z,44.60
2019-01-26T12:46:42.767Z,45.50
2019-01-26T12:49:12.887Z,45.90
2019-01-26T12:51:44.440Z,46.30
2019-01-26T12:54:14.763Z,45.90
2019-01-26T12:57:06.903Z,45.90
2019-01-26T12:59:37.223Z,45.10
2019-01-26T13:02:07.239Z,44.90
2019-01-26T13:04:37.669Z,44.70
2019-01-26T13:07:27.038Z,45.20
2019-01-26T13:12:53.118Z,45.20
2019-01-26T13:15:24.330Z,45.40
2019-01-26T13:17:54.370Z,45.70
2019-01-26T13:20:24.566Z,46.40
2019-01-26T13:22:54.997Z,46.60
2019-01-26T13:25:26.238Z,46.70
2019-01-26T13:27:56.360Z,47.20
2019-01-26T13:30:26.763Z,47.30
2019-01-26T13:32:56.804Z,47.40
2019-01-26T13:35:27.353Z,47.60
2019-01-26T13:37:57.347Z,47.90
2019-01-26T13:40:32.563Z,47.00
2019-01-26T13:43:02.609Z,46.70
2019-01-26T13:45:34.054Z,46.20
2019-01-26T13:48:04.175Z,45.80
2019-01-26T13:50:36.341Z,46.00
2019-01-26T13:53:06.563Z,46.30
2019-01-26T13:55:37.808Z,46.10
2019-01-26T13:58:07.929Z,45.90
2019-01-26T14:00:38.203Z,45.70
2019-01-26T14:03:08.372Z,46.50
2019-01-26T14:05:40.135Z,44.80
2019-01-26T14:08:10.145Z,46.20
2019-01-26T14:10:40.393Z,48.30
2019-01-26T14:13:10.456Z,49.30
2019-01-26T14:18:22.400Z,49.10
2019-01-26T14:20:52.678Z,49.30
2019-01-26T14:23:22.770Z,49.60
2019-01-26T14:25:52.962Z,49.40
2019-01-26T14:31:13.581Z,49.90
2019-01-26T14:33:43.597Z,50.00
2019-01-26T14:36:14.023Z,49.90
2019-01-26T14:38:44.688Z,48.50
2019-01-26T14:41:14.979Z,49.10
2019-01-26T14:43:45.097Z,49.40
2019-01-26T14:46:16.548Z,49.40
2019-01-26T14:51:37.191Z,51.30
2019-01-26T14:54:07.284Z,51.20
2019-01-26T14:56:38.837Z,51.30
2019-01-26T14:59:08.853Z,51.90
2019-01-26T15:01:39.076Z,51.30
2019-01-26T15:04:09.093Z,51.50
2019-01-26T15:06:40.542Z,50.50
2019-01-26T15:09:10.565Z,50.40
2019-01-26T15:11:40.918Z,50.40
2019-01-26T15:14:10.903Z,50.50
2019-01-26T15:16:42.352Z,50.60
2019-01-26T15:19:12.470Z,50.30
2019-01-26T15:21:42.486Z,52.90
2019-01-26T15:24:12.505Z,54.40
2019-01-26T15:26:42.931Z,55.40
2019-01-26T15:29:13.050Z,56.20
2019-01-26T15:31:43.169Z,56.60
2019-01-26T15:34:13.393Z,57.20
2019-01-26T15:36:44.238Z,57.50
2019-01-26T15:39:14.246Z,57.80
2019-01-26T15:41:44.419Z,58.30
2019-01-26T15:44:14.651Z,58.50
2019-01-26T15:46:46.343Z,59.40
2019-01-26T15:52:08.189Z,59.40
2019-01-26T15:54:39.741Z,60.00
2019-01-26T15:57:11.192Z,60.50
2019-01-26T15:59:41.209Z,61.20
2019-01-26T16:02:11.804Z,61.50
2019-01-26T16:04:41.977Z,61.90
2019-01-26T16:07:12.183Z,61.70
2019-01-26T16:09:42.919Z,61.90
2019-01-26T16:12:14.230Z,61.70
2019-01-26T16:14:46.125Z,61.90
2019-01-26T16:17:16.281Z,62.40
2019-01-26T16:19:46.722Z,62.80
2019-01-26T16:22:19.173Z,62.30
2019-01-26T16:24:49.163Z,62.20
2019-01-26T16:27:19.413Z,62.20
2019-01-26T16:29:49.400Z,62.70
2019-01-26T16:32:19.562Z,62.60
2019-01-26T16:34:49.537Z,62.80
2019-01-26T16:40:18.177Z,62.80
2019-01-26T16:42:48.307Z,63.20
2019-01-26T16:45:22.161Z,63.20
2019-01-26T16:47:52.492Z,63.20
2019-01-26T16:50:27.769Z,63.00
2019-01-26T16:52:58.751Z,63.30
2019-01-26T16:55:34.049Z,63.70
2019-01-26T16:58:08.256Z,64.80
2019-01-26T17:00:46.427Z,63.30
2019-01-26T17:03:16.900Z,63.30
2019-01-26T17:05:48.215Z,63.40
2019-01-26T17:08:19.689Z,63.30
2019-01-26T17:10:49.782Z,63.80
2019-01-26T17:13:20.004Z,64.10
2019-01-26T17:15:51.892Z,64.20
2019-01-26T17:18:21.986Z,64.20
2019-01-26T17:20:52.309Z,64.50
2019-01-26T17:23:22.585Z,64.80
2019-01-26T17:25:52.889Z,64.90
2019-01-26T17:28:23.551Z,65.30
2019-01-26T17:30:54.031Z,65.30
2019-01-26T17:33:24.345Z,65.50
2019-01-26T17:38:45.109Z,65.50
2019-01-26T17:41:15.286Z,65.60
2019-01-26T17:43:47.242Z,65.50
2019-01-26T17:46:19.078Z,65.50
2019-01-26T17:48:49.453Z,65.80
2019-01-26T17:51:28.395Z,67.00
2019-01-26T17:53:58.777Z,66.10
2019-01-26T17:56:30.128Z,66.50
2019-01-26T17:59:00.348Z,66.60
2019-01-26T18:01:42.673Z,67.30
2019-01-26T18:04:12.880Z,67.70
2019-01-26T18:06:44.023Z,67.70
2019-01-26T18:09:14.240Z,68.00
2019-01-26T18:11:44.330Z,68.20
2019-01-26T18:14:14.991Z,67.70
2019-01-26T18:16:47.188Z,67.70
2019-01-26T18:19:17.457Z,67.60
2019-01-26T18:21:47.462Z,68.60
2019-01-26T18:24:17.619Z,70.70
2019-01-26T18:26:47.999Z,70.60
2019-01-26T18:29:18.406Z,70.80
2019-01-26T18:32:07.894Z,70.60
2019-01-26T18:34:38.167Z,70.30
2019-01-26T18:37:08.188Z,69.80
2019-01-26T18:39:38.716Z,70.20
2019-01-26T18:42:16.577Z,69.90
2019-01-26T18:44:48.579Z,69.80
2019-01-26T18:47:18.929Z,69.70
2019-01-26T18:49:49.024Z,70.00
2019-01-26T18:52:19.145Z,69.70
2019-01-26T18:54:49.568Z,69.70
2019-01-26T18:57:39.248Z,69.60
2019-01-26T19:00:19.398Z,70.60
2019-01-26T19:02:53.528Z,70.40
2019-01-26T19:05:28.652Z,70.30
2019-01-26T19:07:59.882Z,70.10
2019-01-26T19:10:31.018Z,70.20
2019-01-26T19:16:04.664Z,70.70
2019-01-26T19:18:55.595Z,70.50
2019-01-26T19:21:25.688Z,70.80
2019-01-26T19:23:55.807Z,70.90
2019-01-26T19:26:26.028Z,71.10
2019-01-26T19:28:56.354Z,71.50
2019-01-26T19:31:26.701Z,71.60
2019-01-26T19:36:48.639Z,71.90
2019-01-26T19:39:19.466Z,72.10
2019-01-26T19:41:50.204Z,72.50
2019-01-26T19:44:20.739Z,73.10
2019-01-26T19:46:57.619Z,73.40
2019-01-26T19:49:28.211Z,73.80
2019-01-26T19:51:58.883Z,74.00
2019-01-26T19:54:29.512Z,74.40
2019-01-26T19:57:07.302Z,74.60
2019-01-26T19:59:38.162Z,74.70
2019-01-26T20:02:08.967Z,74.90
2019-01-26T20:04:39.625Z,75.50
2019-01-26T20:07:10.347Z,76.00
2019-01-26T20:09:40.974Z,76.40
2019-01-26T20:12:11.805Z,76.30
2019-01-26T20:17:44.354Z,76.80
2019-01-26T20:20:31.022Z,76.80
2019-01-26T20:25:58.481Z,76.90
2019-01-26T20:28:29.339Z,77.10
2019-01-26T20:31:00.576Z,77.00
2019-01-26T20:33:31.506Z,76.80
2019-01-26T20:36:03.225Z,76.90
2019-01-26T20:38:34.258Z,76.80
2019-01-26T20:41:05.193Z,77.20
2019-01-26T20:43:36.232Z,77.30
2019-01-26T20:46:08.096Z,77.50
2019-01-26T20:48:39.015Z,77.40
2019-01-26T20:51:09.538Z,78.70
2019-01-26T20:54:01.067Z,78.10
2019-01-26T20:56:43.900Z,78.40
2019-01-26T20:59:14.770Z,78.70
2019-01-26T21:01:45.730Z,79.20
2019-01-26T21:04:16.424Z,79.30
2019-01-26T21:06:48.321Z,79.70
2019-01-26T21:09:30.210Z,79.00
2019-01-26T21:12:12.481Z,79.40
2019-01-26T21:14:43.528Z,79.40
2019-01-26T21:17:34.976Z,80.50
2019-01-26T21:20:08.832Z,80.30
2019-01-26T21:22:39.711Z,80.20
2019-01-26T21:25:32.479Z,80.50
2019-01-26T21:28:03.213Z,80.60
2019-01-26T21:30:34.551Z,80.70
2019-01-26T21:33:04.672Z,80.50
2019-01-26T21:35:36.350Z,80.70
2019-01-26T21:38:06.547Z,80.90
2019-01-26T21:40:36.872Z,81.30
2019-01-26T21:43:06.992Z,81.00
2019-01-26T21:45:38.678Z,81.00
2019-01-26T21:48:08.765Z,81.00
2019-01-26T21:50:38.930Z,81.20
2019-01-26T21:53:09.003Z,81.70
2019-01-26T21:55:40.250Z,81.80
2019-01-26T21:58:10.403Z,82.40
2019-01-26T22:00:41.411Z,82.60
2019-01-26T22:03:11.631Z,82.70
2019-01-26T22:05:42.877Z,82.90
2019-01-26T22:08:13.106Z,82.60
2019-01-26T22:10:43.115Z,82.60
2019-01-26T22:13:13.544Z,82.60
2019-01-26T22:15:44.686Z,82.50
2019-01-26T22:18:15.217Z,82.50
2019-01-26T22:20:45.336Z,82.50
2019-01-26T22:23:15.658Z,82.60
2019-01-26T22:25:46.835Z,82.80
2019-01-26T22:28:17.126Z,83.00
2019-01-26T22:30:47.452Z,83.20
2019-01-26T22:33:17.674Z,83.00
2019-01-26T22:35:49.020Z,82.90
2019-01-26T22:38:19.243Z,82.30
2019-01-26T22:40:49.258Z,82.10
2019-01-26T22:43:19.717Z,81.90
2019-01-26T22:45:50.832Z,82.50
2019-01-26T22:48:20.951Z,84.10
2019-01-26T22:50:51.069Z,82.90
2019-01-26T22:53:21.394Z,82.90
2019-01-26T22:55:52.536Z,82.90
2019-01-26T22:58:22.893Z,82.80
2019-01-26T23:01:02.707Z,82.20
2019-01-26T23:04:03.963Z,82.00
2019-01-26T23:06:56.091Z,81.60
2019-01-26T23:09:36.860Z,81.90
2019-01-26T23:12:13.020Z,81.60
2019-01-26T23:15:08.446Z,81.60
2019-01-26T23:17:41.355Z,81.60
2019-01-26T23:20:33.735Z,81.40
2019-01-26T23:23:18.617Z,81.30
2019-01-26T23:25:55.708Z,81.70
2019-01-26T23:31:16.779Z,82.00
2019-01-26T23:33:47.238Z,81.80
2019-01-26T23:36:18.512Z,82.50
2019-01-26T23:38:48.628Z,81.60
2019-01-26T23:41:18.953Z,81.80
2019-01-26T23:43:49.073Z,81.50
2019-01-26T23:46:20.625Z,81.50
2019-01-26T23:48:50.846Z,81.50
2019-01-26T23:51:21.170Z,81.40
2019-01-26T23:53:51.494Z,81.40
2019-01-26T23:56:22.946Z,81.30
2019-01-26T23:58:53.271Z,82.00
